Time;durP1;ratioP1;P1;durP2;ratioP2;P2;SDS_P1;SDS_P2;PMS_P1;PMS_P2;Temp;Humidity;BMP_temperature;BMP_pressure;BME280_temperature;BME280_humidity;BME280_pressure;Samples;Min_cycle;Max_cycle;Signal;HPM_P1;HPM_P2
2023/06/29 00:00:39;;;;;;;29.20;23.60;;;18.40;99.90;;;;;;5120789;27;20042;-62
2023/06/29 00:03:05;;;;;;;31.35;24.05;;;18.40;99.90;;;;;;5141222;27;20494;-62
2023/06/29 00:05:30;;;;;;;30.92;24.95;;;18.40;99.90;;;;;;5149654;27;20050;-62
2023/06/29 00:07:58;;;;;;;28.60;23.50;;;18.40;99.90;;;;;;5117659;27;20459;-62
2023/06/29 00:10:28;;;;;;;29.00;23.95;;;18.40;99.90;;;;;;5115387;27;20504;-62
2023/06/29 00:12:54;;;;;;;29.23;24.00;;;18.40;99.90;;;;;;5122503;27;20038;-62
2023/06/29 00:15:20;;;;;;;31.20;24.15;;;18.40;99.90;;;;;;5143807;27;20385;-62
2023/06/29 00:17:47;;;;;;;32.35;24.45;;;18.40;99.90;;;;;;5119617;27;20035;-61
2023/06/29 00:20:13;;;;;;;31.13;25.20;;;18.40;99.90;;;;;;5126087;27;20039;-63
2023/06/29 00:22:40;;;;;;;32.20;26.17;;;18.40;99.90;;;;;;5117288;27;20121;-61
2023/06/29 00:25:10;;;;;;;31.60;24.08;;;18.30;99.90;;;;;;5140956;27;20039;-61
2023/06/29 00:27:36;;;;;;;33.42;25.05;;;18.30;99.90;;;;;;5136733;27;20099;-62
2023/06/29 00:30:01;;;;;;;29.02;23.42;;;18.30;99.90;;;;;;5122522;27;20039;-62
2023/06/29 00:32:27;;;;;;;32.17;25.02;;;18.30;99.90;;;;;;5135894;27;20035;-62
2023/06/29 00:34:53;;;;;;;35.65;26.17;;;18.30;99.90;;;;;;5122469;27;20060;-62
2023/06/29 00:37:18;;;;;;;35.05;25.45;;;18.30;99.90;;;;;;5120210;27;20045;-62
2023/06/29 00:39:44;;;;;;;29.35;25.17;;;18.30;99.90;;;;;;5117713;27;20038;-61
2023/06/29 00:42:10;;;;;;;31.20;24.38;;;18.30;99.90;;;;;;5144569;27;20031;-63
2023/06/29 00:44:35;;;;;;;34.63;26.00;;;18.30;99.90;;;;;;5143089;27;20042;-61
2023/06/29 00:47:01;;;;;;;31.60;24.85;;;18.30;99.90;;;;;;5126599;27;20038;-62
2023/06/29 00:49:27;;;;;;;31.42;25.02;;;18.30;99.90;;;;;;5137698;27;20046;-62
2023/06/29 00:51:53;;;;;;;31.38;24.45;;;18.30;99.90;;;;;;5141404;27;20117;-61
2023/06/29 00:54:20;;;;;;;28.45;24.27;;;18.30;99.90;;;;;;5121121;27;20039;-61
2023/06/29 00:56:46;;;;;;;34.70;26.33;;;18.30;99.90;;;;;;5135818;27;20039;-62
2023/06/29 00:59:12;;;;;;;36.00;25.00;;;18.30;99.90;;;;;;5139529;27;20031;-61
2023/06/29 01:01:39;;;;;;;31.45;25.05;;;18.30;99.90;;;;;;5149945;27;20035;-62
2023/06/29 01:04:08;;;;;;;34.45;26.83;;;18.30;99.90;;;;;;5144478;27;20050;-60
2023/06/29 01:06:46;;;;;;;36.78;26.98;;;18.30;99.90;;;;;;5137361;27;20133;-61
2023/06/29 01:09:13;;;;;;;30.60;25.52;;;18.30;99.90;;;;;;5127597;27;20039;-61
2023/06/29 01:11:40;;;;;;;31.33;25.65;;;18.30;99.90;;;;;;5106570;27;20058;-63
2023/06/29 01:14:08;;;;;;;30.40;23.65;;;18.30;99.90;;;;;;5137927;27;20386;-61
2023/06/29 01:16:35;;;;;;;35.08;26.73;;;18.30;99.90;;;;;;5129701;27;20035;-62
2023/06/29 01:19:06;;;;;;;28.00;23.92;;;18.30;99.90;;;;;;5122507;27;20050;-62
2023/06/29 01:21:37;;;;;;;32.20;25.38;;;18.30;99.90;;;;;;5137817;27;20050;-61
2023/06/29 01:24:04;;;;;;;29.73;25.50;;;18.20;99.90;;;;;;5110790;27;20123;-61
2023/06/29 01:26:30;;;;;;;33.70;26.73;;;18.30;99.90;;;;;;5129454;27;20508;-62
2023/06/29 01:28:56;;;;;;;33.30;27.73;;;18.30;99.90;;;;;;5122519;27;20039;-61
2023/06/29 01:31:26;;;;;;;37.65;26.98;;;18.30;99.90;;;;;;5148101;27;20091;-62
2023/06/29 01:33:53;;;;;;;31.33;25.83;;;18.30;99.90;;;;;;5128317;27;20528;-61
2023/06/29 01:36:31;;;;;;;31.33;25.80;;;18.30;99.90;;;;;;5128709;27;20385;-63
2023/06/29 01:39:07;;;;;;;33.75;26.67;;;18.30;99.90;;;;;;5140863;27;20408;-63
2023/06/29 01:41:39;;;;;;;31.15;25.15;;;18.20;99.90;;;;;;5128897;27;20031;-62
2023/06/29 01:44:08;;;;;;;37.83;28.67;;;18.20;99.90;;;;;;5144225;27;20038;-61
2023/06/29 01:46:34;;;;;;;32.22;25.33;;;18.20;99.90;;;;;;5131524;27;20038;-61
2023/06/29 01:49:01;;;;;;;33.53;25.48;;;18.20;99.90;;;;;;5122299;27;20046;-62
2023/06/29 01:51:26;;;;;;;35.10;28.13;;;18.20;99.90;;;;;;5148688;27;20035;-63
2023/06/29 01:53:53;;;;;;;27.40;23.58;;;18.20;99.90;;;;;;5145611;27;20043;-62
2023/06/29 01:56:19;;;;;;;36.47;27.52;;;18.20;99.90;;;;;;5143671;27;20043;-62
2023/06/29 01:58:44;;;;;;;35.75;26.40;;;18.20;99.90;;;;;;5143242;27;20031;-62
2023/06/29 02:01:10;;;;;;;31.83;25.02;;;18.20;99.90;;;;;;5130387;27;20034;-61
2023/06/29 02:03:36;;;;;;;27.90;24.88;;;18.20;99.90;;;;;;5122927;27;20051;-62
2023/06/29 02:06:01;;;;;;;34.90;28.25;;;18.20;99.90;;;;;;5145964;27;20047;-61
2023/06/29 02:08:27;;;;;;;30.13;25.08;;;18.20;99.90;;;;;;5144047;27;20497;-62
2023/06/29 02:10:52;;;;;;;32.20;25.90;;;18.20;99.90;;;;;;5127409;27;20096;-62
2023/06/29 02:13:18;;;;;;;33.72;26.45;;;18.20;99.90;;;;;;5122141;27;20477;-62
2023/06/29 02:15:44;;;;;;;32.20;26.05;;;18.20;99.90;;;;;;5140161;27;20043;-62
2023/06/29 02:18:09;;;;;;;30.20;24.73;;;18.20;99.90;;;;;;5145523;27;20045;-62
2023/06/29 02:20:35;;;;;;;31.27;25.25;;;18.10;99.90;;;;;;5145698;27;20034;-62
2023/06/29 02:23:01;;;;;;;34.22;27.48;;;18.20;99.90;;;;;;5139150;27;20067;-61
2023/06/29 02:25:26;;;;;;;32.78;26.02;;;18.10;99.90;;;;;;5143926;27;20035;-62
2023/06/29 02:27:52;;;;;;;33.53;26.98;;;18.10;99.90;;;;;;5122147;27;20039;-62
2023/06/29 02:30:17;;;;;;;34.45;27.25;;;18.10;99.90;;;;;;5125320;27;20043;-62
2023/06/29 02:32:43;;;;;;;35.78;27.23;;;18.10;99.90;;;;;;5142894;27;20378;-62
2023/06/29 02:35:09;;;;;;;31.92;26.38;;;18.10;99.90;;;;;;5137397;27;20035;-62
2023/06/29 02:37:34;;;;;;;31.30;25.70;;;18.10;99.90;;;;;;5139860;27;20042;-62
2023/06/29 02:40:00;;;;;;;38.28;29.65;;;18.10;99.90;;;;;;5120255;27;20185;-62
2023/06/29 02:42:27;;;;;;;38.40;28.40;;;18.10;99.90;;;;;;5137596;27;20080;-61
2023/06/29 02:44:52;;;;;;;34.38;28.05;;;18.10;99.90;;;;;;5124109;27;20485;-63
2023/06/29 02:47:18;;;;;;;35.08;28.33;;;18.10;99.90;;;;;;5119024;27;20047;-62
2023/06/29 02:49:44;;;;;;;39.22;29.58;;;18.10;99.90;;;;;;5144951;27;20034;-61
2023/06/29 02:52:09;;;;;;;33.67;26.42;;;18.10;99.90;;;;;;5116364;27;20394;-61
2023/06/29 02:54:35;;;;;;;32.22;25.60;;;18.10;99.90;;;;;;5144116;27;20393;-62
2023/06/29 02:57:00;;;;;;;33.97;28.45;;;18.10;99.90;;;;;;5122793;27;20043;-63
2023/06/29 02:59:26;;;;;;;37.90;29.10;;;18.10;99.90;;;;;;5144736;27;20071;-63
2023/06/29 03:01:52;;;;;;;35.42;27.35;;;18.10;99.90;;;;;;5146125;27;20096;-63
2023/06/29 03:04:17;;;;;;;35.20;26.95;;;18.10;99.90;;;;;;5122531;27;20107;-61
2023/06/29 03:06:43;;;;;;;34.72;27.35;;;18.10;99.90;;;;;;5141384;27;20049;-60
2023/06/29 03:09:08;;;;;;;36.38;28.60;;;18.10;99.90;;;;;;5146583;27;20079;-61
2023/06/29 03:11:34;;;;;;;35.95;27.70;;;18.10;99.90;;;;;;5140592;27;20043;-63
2023/06/29 03:14:00;;;;;;;30.58;26.15;;;18.10;99.90;;;;;;5122092;27;20035;-61
2023/06/29 03:16:25;;;;;;;30.63;26.20;;;18.10;99.90;;;;;;5122721;27;20367;-61
2023/06/29 03:18:51;;;;;;;31.70;26.10;;;18.10;99.90;;;;;;5125914;27;20038;-61
2023/06/29 03:21:19;;;;;;;33.22;26.52;;;18.10;99.90;;;;;;5117991;27;20039;-62
2023/06/29 03:23:45;;;;;;;36.35;28.02;;;18.10;99.90;;;;;;5137784;27;20039;-63
2023/06/29 03:26:11;;;;;;;30.27;26.65;;;18.10;99.90;;;;;;5123875;27;20039;-62
2023/06/29 03:28:37;;;;;;;35.70;26.23;;;18.10;99.90;;;;;;5141687;27;20057;-62
2023/06/29 03:31:02;;;;;;;34.85;29.17;;;18.10;99.90;;;;;;5124349;27;20042;-63
2023/06/29 03:33:28;;;;;;;37.13;29.35;;;18.10;99.90;;;;;;5123140;27;20043;-62
2023/06/29 03:35:54;;;;;;;34.88;26.67;;;18.20;99.90;;;;;;5121923;27;20046;-62
2023/06/29 03:38:19;;;;;;;33.25;27.33;;;18.10;99.90;;;;;;5138936;27;20113;-63
2023/06/29 03:40:45;;;;;;;33.92;27.27;;;18.20;99.90;;;;;;5125049;27;20046;-62
2023/06/29 03:43:10;;;;;;;34.38;27.77;;;18.20;99.90;;;;;;5122873;27;20508;-62
2023/06/29 03:45:36;;;;;;;32.13;26.27;;;18.20;99.90;;;;;;5132838;27;20051;-62
2023/06/29 03:48:02;;;;;;;33.67;26.42;;;18.20;99.90;;;;;;5116357;27;20031;-62
2023/06/29 03:50:27;;;;;;;34.00;27.05;;;18.20;99.90;;;;;;5118202;27;20046;-61
2023/06/29 03:52:53;;;;;;;40.17;28.42;;;18.20;99.90;;;;;;5142527;27;20498;-60
2023/06/29 03:55:19;;;;;;;36.20;27.95;;;18.20;99.90;;;;;;5119137;27;20041;-62
2023/06/29 03:57:45;;;;;;;35.38;28.95;;;18.20;99.90;;;;;;5114136;27;20122;-61
2023/06/29 04:00:11;;;;;;;32.42;27.90;;;18.20;99.90;;;;;;5136601;27;20089;-63
2023/06/29 04:02:36;;;;;;;36.78;30.35;;;18.30;99.90;;;;;;5137364;27;20049;-62
2023/06/29 04:05:03;;;;;;;34.15;28.60;;;18.30;99.90;;;;;;5135927;27;20050;-62
2023/06/29 04:07:29;;;;;;;36.53;27.98;;;18.30;99.90;;;;;;5138233;27;20524;-63
2023/06/29 04:09:54;;;;;;;35.63;29.15;;;18.30;99.90;;;;;;5123476;27;20039;-62
2023/06/29 04:12:20;;;;;;;39.50;30.80;;;18.30;99.90;;;;;;5141599;27;20066;-62
2023/06/29 04:14:46;;;;;;;40.40;31.05;;;18.40;99.90;;;;;;5124402;27;20074;-62
2023/06/29 04:17:12;;;;;;;38.42;30.90;;;18.40;99.90;;;;;;5141275;27;20059;-63
2023/06/29 04:19:37;;;;;;;36.13;28.75;;;18.40;99.90;;;;;;5117117;27;20396;-63
2023/06/29 04:22:03;;;;;;;38.22;29.65;;;18.40;99.90;;;;;;5122143;27;20035;-62
2023/06/29 04:24:29;;;;;;;34.67;27.55;;;18.50;99.90;;;;;;5140365;27;20031;-62
2023/06/29 04:26:54;;;;;;;33.38;27.88;;;18.40;99.90;;;;;;5119897;27;20039;-61
2023/06/29 04:29:20;;;;;;;35.78;28.33;;;18.50;99.90;;;;;;5135635;27;20088;-61
2023/06/29 04:31:46;;;;;;;34.55;28.20;;;18.40;99.90;;;;;;5122401;27;20068;-62
2023/06/29 04:34:17;;;;;;;38.50;30.38;;;18.50;99.90;;;;;;5122493;27;20059;-60
2023/06/29 04:36:46;;;;;;;32.67;28.15;;;18.50;99.90;;;;;;5137394;27;20473;-61
2023/06/29 04:39:15;;;;;;;33.78;27.10;;;18.50;99.90;;;;;;5143019;27;20404;-62
2023/06/29 04:41:46;;;;;;;34.50;28.13;;;18.50;99.90;;;;;;5118001;27;20039;-60
2023/06/29 04:44:12;;;;;;;34.60;26.90;;;18.60;99.90;;;;;;5143073;27;20388;-61
2023/06/29 04:46:38;;;;;;;35.50;28.52;;;18.70;99.90;;;;;;5145049;27;20036;-62
2023/06/29 04:49:07;;;;;;;36.95;29.20;;;18.70;99.90;;;;;;5133147;27;20397;-62
2023/06/29 04:51:41;;;;;;;33.97;26.98;;;18.70;99.90;;;;;;5125263;27;20049;-61
2023/06/29 04:54:07;;;;;;;35.65;27.58;;;18.80;99.90;;;;;;5120569;27;20043;-61
2023/06/29 04:56:33;;;;;;;35.38;28.08;;;18.80;99.90;;;;;;5123652;27;20042;-62
2023/06/29 04:58:59;;;;;;;38.20;29.13;;;18.90;99.90;;;;;;5144498;27;20079;-62
2023/06/29 05:01:24;;;;;;;33.35;27.25;;;18.90;99.90;;;;;;5129851;27;20042;-61
2023/06/29 05:03:50;;;;;;;31.25;26.50;;;19.00;99.90;;;;;;5123194;27;20060;-61
2023/06/29 05:06:16;;;;;;;33.42;27.92;;;19.00;99.90;;;;;;5127046;27;20054;-63
2023/06/29 05:08:42;;;;;;;34.28;27.52;;;19.00;99.90;;;;;;5123097;27;20035;-61
2023/06/29 05:11:07;;;;;;;35.08;27.95;;;19.10;99.90;;;;;;5123913;27;20078;-62
2023/06/29 05:13:35;;;;;;;33.30;26.65;;;19.10;99.90;;;;;;5106816;27;20195;-60
2023/06/29 05:16:03;;;;;;;33.80;26.65;;;19.10;99.90;;;;;;5126329;27;20033;-63
2023/06/29 05:18:29;;;;;;;31.08;25.90;;;19.10;99.90;;;;;;5119350;27;20423;-63
2023/06/29 05:20:54;;;;;;;32.13;26.73;;;19.10;99.90;;;;;;5124488;27;20039;-62
2023/06/29 05:23:20;;;;;;;30.27;24.67;;;19.20;99.90;;;;;;5117302;27;21423;-62
2023/06/29 05:25:46;;;;;;;34.50;26.73;;;19.20;99.90;;;;;;5123992;27;20047;-61
2023/06/29 05:28:11;;;;;;;34.00;27.02;;;19.20;99.90;;;;;;5115890;27;20118;-61
2023/06/29 05:30:37;;;;;;;36.30;28.27;;;19.20;99.90;;;;;;5133198;27;20409;-61
2023/06/29 05:33:04;;;;;;;35.10;27.17;;;19.20;99.90;;;;;;5116883;27;20042;-61
2023/06/29 05:35:31;;;;;;;31.42;26.25;;;19.20;99.90;;;;;;5123190;27;20043;-62
2023/06/29 05:37:57;;;;;;;30.98;25.45;;;19.20;99.90;;;;;;5120791;27;20100;-61
2023/06/29 05:40:23;;;;;;;35.30;26.40;;;19.20;99.90;;;;;;5118761;27;20497;-62
2023/06/29 05:42:49;;;;;;;31.23;26.35;;;19.30;99.90;;;;;;5121095;27;20085;-63
2023/06/29 05:45:15;;;;;;;33.38;26.23;;;19.30;99.90;;;;;;5128333;27;20039;-61
2023/06/29 05:47:41;;;;;;;34.30;26.83;;;19.30;99.90;;;;;;5124314;27;20040;-62
2023/06/29 05:50:07;;;;;;;35.13;27.65;;;19.30;99.90;;;;;;5126165;27;20490;-63
2023/06/29 05:52:33;;;;;;;33.15;26.10;;;19.30;99.90;;;;;;5120831;27;20764;-62
2023/06/29 05:55:00;;;;;;;32.95;27.42;;;19.30;99.90;;;;;;5123884;27;20043;-62
2023/06/29 05:57:25;;;;;;;35.15;28.15;;;19.30;99.90;;;;;;5130786;27;20068;-63
2023/06/29 05:59:51;;;;;;;33.08;26.85;;;19.30;99.90;;;;;;5122547;27;20035;-63
2023/06/29 06:02:17;;;;;;;30.85;25.38;;;19.30;99.90;;;;;;5125822;27;20047;-62
2023/06/29 06:04:43;;;;;;;32.25;25.08;;;19.30;99.90;;;;;;5140266;27;20047;-62
2023/06/29 06:07:10;;;;;;;36.78;27.65;;;19.40;99.90;;;;;;5124669;27;20066;-62
2023/06/29 06:09:35;;;;;;;32.85;25.20;;;19.30;99.90;;;;;;5142637;27;20397;-63
2023/06/29 06:12:05;;;;;;;37.15;27.42;;;19.30;99.90;;;;;;5142335;27;20031;-62
2023/06/29 06:14:30;;;;;;;34.30;27.08;;;19.40;99.90;;;;;;5126698;27;20066;-62
2023/06/29 06:16:56;;;;;;;31.27;25.75;;;19.30;99.90;;;;;;5140436;27;20431;-61
2023/06/29 06:19:22;;;;;;;34.78;27.27;;;19.40;99.90;;;;;;5139451;27;20043;-62
2023/06/29 06:21:47;;;;;;;31.08;25.02;;;19.30;99.90;;;;;;5120791;27;20034;-62
2023/06/29 06:24:13;;;;;;;30.52;26.02;;;19.40;99.90;;;;;;5144878;27;20031;-62
2023/06/29 06:26:39;;;;;;;36.10;27.10;;;19.40;99.90;;;;;;5131419;27;20043;-60
2023/06/29 06:29:04;;;;;;;31.13;24.77;;;19.40;99.90;;;;;;5120591;27;20039;-62
2023/06/29 06:31:30;;;;;;;32.75;27.17;;;19.40;99.90;;;;;;5126994;27;20038;-60
2023/06/29 06:33:57;;;;;;;32.40;26.55;;;19.40;99.90;;;;;;5124205;27;20039;-63
2023/06/29 06:36:24;;;;;;;36.72;26.90;;;19.30;99.90;;;;;;5125973;27;20039;-62
2023/06/29 06:38:50;;;;;;;32.72;25.58;;;19.30;99.90;;;;;;5125687;27;20073;-60
2023/06/29 06:41:16;;;;;;;34.22;26.58;;;19.30;99.90;;;;;;5142623;27;20071;-62
2023/06/29 06:43:42;;;;;;;32.97;25.42;;;19.20;99.90;;;;;;5120921;27;20050;-62
2023/06/29 06:46:08;;;;;;;31.27;25.13;;;19.20;99.90;;;;;;5127919;27;20397;-62
2023/06/29 06:48:33;;;;;;;33.85;25.27;;;19.20;99.90;;;;;;5115806;27;20051;-61
2023/06/29 06:50:59;;;;;;;34.30;25.42;;;19.20;99.90;;;;;;5116791;27;20043;-61
2023/06/29 06:53:24;;;;;;;32.63;26.30;;;19.20;99.90;;;;;;5120972;27;20480;-62
2023/06/29 06:55:50;;;;;;;31.52;25.23;;;19.20;99.90;;;;;;5149234;27;20106;-62
2023/06/29 06:58:16;;;;;;;31.30;25.48;;;19.30;99.90;;;;;;5135121;27;20031;-62
2023/06/29 07:00:42;;;;;;;33.85;25.75;;;19.30;99.90;;;;;;5124590;27;20514;-61
2023/06/29 07:03:07;;;;;;;33.40;27.20;;;19.40;99.90;;;;;;5121272;27;20062;-61
2023/06/29 07:05:33;;;;;;;32.08;26.00;;;19.40;99.90;;;;;;5115671;27;20061;-61
2023/06/29 07:07:59;;;;;;;32.60;26.35;;;19.40;99.90;;;;;;5124022;27;20493;-62
2023/06/29 07:10:25;;;;;;;29.33;25.63;;;19.50;99.90;;;;;;5142521;27;20116;-61
2023/06/29 07:12:51;;;;;;;32.70;24.83;;;19.50;99.90;;;;;;5142461;27;20038;-61
2023/06/29 07:15:17;;;;;;;35.42;27.70;;;19.60;99.90;;;;;;5118728;27;20485;-62
2023/06/29 07:17:42;;;;;;;33.83;26.52;;;19.60;99.90;;;;;;5135456;27;20035;-63
2023/06/29 07:20:09;;;;;;;37.83;27.83;;;19.70;99.90;;;;;;5118205;27;20035;-63
2023/06/29 07:22:34;;;;;;;35.17;27.52;;;19.70;99.90;;;;;;5133488;27;20070;-62
2023/06/29 07:25:00;;;;;;;34.50;27.98;;;19.70;99.90;;;;;;5116088;27;20089;-61
2023/06/29 07:27:26;;;;;;;35.67;28.92;;;19.80;99.90;;;;;;5144468;27;20038;-61
2023/06/29 07:29:52;;;;;;;35.50;28.13;;;19.80;99.90;;;;;;5120487;27;20106;-63
2023/06/29 07:32:17;;;;;;;36.45;28.55;;;19.80;99.90;;;;;;5122931;27;20034;-63
2023/06/29 07:34:43;;;;;;;37.30;28.52;;;19.80;99.90;;;;;;5127347;27;20058;-62
2023/06/29 07:37:09;;;;;;;41.45;31.08;;;19.80;99.90;;;;;;5120241;27;20424;-62
2023/06/29 07:39:35;;;;;;;38.47;28.67;;;19.80;99.90;;;;;;5144179;27;20030;-62
2023/06/29 07:42:00;;;;;;;37.33;29.92;;;19.80;99.90;;;;;;5148082;27;20030;-61
2023/06/29 07:44:27;;;;;;;38.63;31.60;;;19.90;99.90;;;;;;5143635;27;20035;-61
2023/06/29 07:46:53;;;;;;;44.33;32.22;;;19.90;99.90;;;;;;5141214;27;20039;-60
2023/06/29 07:49:18;;;;;;;39.28;31.33;;;19.90;99.90;;;;;;5117654;27;20415;-61
2023/06/29 07:51:45;;;;;;;40.50;32.45;;;19.90;99.90;;;;;;5116955;27;20045;-62
2023/06/29 07:54:12;;;;;;;44.80;33.40;;;20.00;99.90;;;;;;5140810;27;20041;-63
2023/06/29 07:56:38;;;;;;;40.58;32.80;;;20.00;99.90;;;;;;5141149;27;20114;-62
2023/06/29 07:59:03;;;;;;;45.30;33.50;;;20.10;99.90;;;;;;5122816;27;20043;-62
2023/06/29 08:01:29;;;;;;;41.25;32.50;;;20.20;99.90;;;;;;5135373;27;20039;-62
2023/06/29 08:03:55;;;;;;;41.03;31.92;;;20.30;99.90;;;;;;5102971;27;20050;-61
2023/06/29 08:06:21;;;;;;;37.78;29.35;;;20.40;99.90;;;;;;5140843;27;20047;-61
2023/06/29 08:08:46;;;;;;;41.42;30.17;;;20.50;99.90;;;;;;5122669;27;20039;-62
2023/06/29 08:11:13;;;;;;;39.45;30.63;;;20.60;99.90;;;;;;5120832;27;20397;-61
2023/06/29 08:13:39;;;;;;;38.60;29.30;;;20.60;99.90;;;;;;5137859;27;20039;-63
2023/06/29 08:16:05;;;;;;;39.30;29.70;;;20.70;99.90;;;;;;5119049;27;20125;-61
2023/06/29 08:18:31;;;;;;;42.40;30.52;;;20.80;99.90;;;;;;5125565;27;20045;-62
2023/06/29 08:20:57;;;;;;;38.58;30.20;;;20.90;99.90;;;;;;5126164;27;20051;-65
2023/06/29 08:23:23;;;;;;;37.38;29.75;;;21.00;99.90;;;;;;5118595;28;20374;-63
2023/06/29 08:25:48;;;;;;;39.13;30.17;;;21.10;99.90;;;;;;5121189;27;20054;-64
2023/06/29 08:28:14;;;;;;;34.47;26.67;;;21.10;99.90;;;;;;5126622;28;20042;-64
2023/06/29 08:30:40;;;;;;;36.58;28.25;;;21.10;99.90;;;;;;5119765;27;20047;-64
2023/06/29 08:33:05;;;;;;;40.67;30.80;;;21.10;99.90;;;;;;5130508;27;20031;-65
2023/06/29 08:35:31;;;;;;;37.60;29.65;;;21.20;99.90;;;;;;5131100;27;21478;-62
2023/06/29 08:37:57;;;;;;;36.53;29.38;;;21.20;99.90;;;;;;5130689;27;20078;-64
2023/06/29 08:40:23;;;;;;;39.88;29.73;;;21.20;99.90;;;;;;5127766;27;20043;-64
2023/06/29 08:42:50;;;;;;;40.35;28.73;;;21.10;99.90;;;;;;5123746;27;20481;-64
2023/06/29 08:45:36;;;;;;;37.72;28.60;;;21.00;99.90;;;;;;5127926;27;20043;-64
2023/06/29 08:48:02;;;;;;;37.03;27.98;;;20.90;99.90;;;;;;5139864;27;20175;-65
2023/06/29 08:50:30;;;;;;;37.03;27.67;;;20.90;99.90;;;;;;5126613;27;20039;-63
2023/06/29 08:52:56;;;;;;;37.80;26.58;;;20.80;99.90;;;;;;5129419;27;20359;-64
2023/06/29 08:55:23;;;;;;;33.58;25.90;;;20.80;99.90;;;;;;5127216;27;20073;-63
2023/06/29 08:57:50;;;;;;;31.63;24.65;;;20.80;99.90;;;;;;5121753;27;20492;-63
2023/06/29 09:00:16;;;;;;;32.40;23.95;;;20.80;99.90;;;;;;5130300;27;20179;-63
2023/06/29 09:02:43;;;;;;;31.38;23.58;;;20.80;99.90;;;;;;5130014;27;20046;-64
2023/06/29 09:05:09;;;;;;;33.67;24.50;;;20.80;99.90;;;;;;5147274;27;20050;-63
2023/06/29 09:07:34;;;;;;;31.25;22.83;;;20.90;99.90;;;;;;5143265;27;20553;-64
2023/06/29 09:10:00;;;;;;;29.42;22.95;;;20.80;99.90;;;;;;5148177;27;20046;-64
2023/06/29 09:12:27;;;;;;;28.70;23.00;;;20.90;99.90;;;;;;5123032;27;20050;-64
2023/06/29 09:14:57;;;;;;;31.15;22.88;;;20.80;99.90;;;;;;5126774;27;20482;-63
2023/06/29 09:17:22;;;;;;;31.20;23.90;;;20.80;99.90;;;;;;5125898;27;20038;-64
2023/06/29 09:19:57;;;;;;;29.67;21.77;;;20.70;99.90;;;;;;5144394;27;20790;-63
2023/06/29 09:22:25;;;;;;;32.45;23.15;;;20.60;99.90;;;;;;5126678;27;20034;-64
2023/06/29 09:24:58;;;;;;;28.88;22.42;;;20.60;99.90;;;;;;5126277;27;20046;-64
2023/06/29 09:27:25;;;;;;;28.00;22.95;;;20.50;99.90;;;;;;5138147;27;20039;-64
2023/06/29 09:29:52;;;;;;;31.35;24.33;;;20.40;99.90;;;;;;5118152;27;20042;-64
2023/06/29 09:32:18;;;;;;;28.33;21.95;;;20.40;99.90;;;;;;5120758;27;20417;-64
2023/06/29 09:34:48;;;;;;;33.45;24.48;;;20.40;99.90;;;;;;5143687;27;20038;-62
2023/06/29 09:37:17;;;;;;;32.72;25.17;;;20.40;99.90;;;;;;5125761;27;20365;-64
2023/06/29 09:40:11;;;;;;;32.47;24.23;;;20.40;99.90;;;;;;5125705;27;20062;-64
2023/06/29 09:42:38;;;;;;;35.67;22.33;;;20.50;99.90;;;;;;5122170;27;20426;-64
2023/06/29 09:45:13;;;;;;;32.28;23.73;;;20.50;99.90;;;;;;5124132;27;20046;-63
2023/06/29 09:47:51;;;;;;;37.20;25.52;;;20.60;99.90;;;;;;5139438;27;20038;-64
2023/06/29 09:50:22;;;;;;;30.23;23.90;;;20.60;99.90;;;;;;5126707;27;20050;-64
2023/06/29 09:52:51;;;;;;;31.48;24.20;;;20.60;99.90;;;;;;5136606;27;20031;-64
2023/06/29 09:55:17;;;;;;;35.22;24.05;;;20.70;99.90;;;;;;5125076;27;20035;-64
2023/06/29 09:57:49;;;;;;;31.50;23.83;;;20.70;99.90;;;;;;5116165;27;20114;-64
2023/06/29 10:00:15;;;;;;;33.53;26.40;;;20.80;99.90;;;;;;5116417;27;20120;-64
2023/06/29 10:02:41;;;;;;;32.55;24.70;;;20.80;99.90;;;;;;5119447;27;20163;-64
2023/06/29 10:05:09;;;;;;;32.33;25.17;;;20.80;99.90;;;;;;5116324;27;20116;-64
2023/06/29 10:07:36;;;;;;;34.80;25.60;;;20.80;99.90;;;;;;5110797;28;20044;-63
2023/06/29 10:10:06;;;;;;;32.08;24.95;;;20.80;99.90;;;;;;5111024;28;20039;-64
2023/06/29 10:12:33;;;;;;;33.83;25.73;;;20.70;99.90;;;;;;5110958;28;20085;-63
2023/06/29 10:15:08;;;;;;;34.92;25.63;;;20.80;99.90;;;;;;5111570;28;20039;-63
2023/06/29 10:17:55;;;;;;;30.88;24.45;;;20.80;99.90;;;;;;5110997;28;20028;-63
2023/06/29 10:20:25;;;;;;;32.25;25.02;;;20.80;99.90;;;;;;5108273;28;20122;-64
2023/06/29 10:22:52;;;;;;;34.50;25.67;;;20.80;99.90;;;;;;5110546;28;20116;-64
2023/06/29 10:25:21;;;;;;;33.08;25.17;;;20.90;99.90;;;;;;5110615;28;20452;-64
2023/06/29 10:27:48;;;;;;;32.03;24.52;;;21.00;99.90;;;;;;5110474;28;20044;-64
2023/06/29 10:30:18;;;;;;;34.10;24.13;;;21.00;99.90;;;;;;5110856;28;20112;-63
2023/06/29 10:32:48;;;;;;;30.40;24.55;;;21.10;99.90;;;;;;5110644;28;20600;-64
2023/06/29 10:35:14;;;;;;;33.42;25.05;;;21.20;99.90;;;;;;5110996;28;20435;-63
2023/06/29 10:37:45;;;;;;;29.10;23.40;;;21.20;99.90;;;;;;5110399;28;20044;-63
2023/06/29 10:40:10;;;;;;;32.95;23.65;;;21.30;99.90;;;;;;5110846;28;20035;-63
2023/06/29 10:42:39;;;;;;;32.60;24.23;;;21.40;99.90;;;;;;5109765;28;20055;-63
2023/06/29 10:45:20;;;;;;;32.70;25.50;;;21.40;99.90;;;;;;5111799;28;20553;-64
2023/06/29 10:47:58;;;;;;;33.15;24.77;;;21.60;99.90;;;;;;5109722;28;20390;-63
2023/06/29 10:50:38;;;;;;;29.33;25.27;;;21.70;99.90;;;;;;5110225;28;20100;-64
2023/06/29 10:53:07;;;;;;;31.75;24.27;;;21.70;99.90;;;;;;5110868;28;20040;-63
2023/06/29 10:55:40;;;;;;;30.48;23.67;;;21.80;99.90;;;;;;5110538;28;20031;-62
2023/06/29 10:58:25;;;;;;;30.67;24.33;;;22.00;99.90;;;;;;5105896;28;20043;-63
2023/06/29 11:00:53;;;;;;;33.03;24.38;;;22.20;99.90;;;;;;5104798;28;20402;-64
2023/06/29 11:03:20;;;;;;;32.10;25.13;;;22.50;99.90;;;;;;5109986;28;20046;-64
2023/06/29 11:05:51;;;;;;;32.08;24.83;;;22.50;99.90;;;;;;5140628;27;20059;-65
2023/06/29 11:08:17;;;;;;;33.08;25.67;;;22.70;99.90;;;;;;5128498;27;20043;-64
2023/06/29 11:10:42;;;;;;;32.13;25.50;;;22.80;99.90;;;;;;5130614;27;20066;-64
2023/06/29 11:13:09;;;;;;;32.47;26.45;;;22.90;99.90;;;;;;5125474;27;20485;-64
2023/06/29 11:15:36;;;;;;;31.35;26.77;;;22.90;99.90;;;;;;5122924;27;20076;-63
2023/06/29 11:18:07;;;;;;;34.13;25.77;;;22.90;99.90;;;;;;5133091;27;20047;-64
2023/06/29 11:20:36;;;;;;;31.13;25.60;;;23.00;99.90;;;;;;5149502;27;20035;-62
2023/06/29 11:23:02;;;;;;;33.67;26.60;;;23.00;99.90;;;;;;5133234;27;20445;-64
2023/06/29 11:25:29;;;;;;;29.70;24.63;;;23.20;99.90;;;;;;5127535;27;20175;-64
2023/06/29 11:27:56;;;;;;;30.95;24.75;;;23.50;99.90;;;;;;5127404;27;20116;-63
2023/06/29 11:30:22;;;;;;;29.75;25.02;;;23.70;99.90;;;;;;5125749;27;20053;-66
2023/06/29 11:32:50;;;;;;;31.90;25.15;;;23.90;99.90;;;;;;5143401;27;20031;-62
2023/06/29 11:35:20;;;;;;;31.55;25.33;;;24.20;99.90;;;;;;5121757;27;20039;-63
2023/06/29 11:37:45;;;;;;;28.38;23.70;;;24.30;99.90;;;;;;5129289;27;20481;-63
2023/06/29 11:40:19;;;;;;;27.38;24.30;;;24.10;99.90;;;;;;5147775;27;20050;-63
2023/06/29 11:42:45;;;;;;;32.25;24.45;;;24.20;99.90;;;;;;5146118;27;20038;-63
2023/06/29 11:45:12;;;;;;;30.77;24.15;;;24.40;99.90;;;;;;5128659;27;20366;-64
2023/06/29 11:47:38;;;;;;;27.70;24.48;;;24.50;99.90;;;;;;5124342;27;20469;-63
2023/06/29 11:50:07;;;;;;;32.80;27.40;;;24.40;99.90;;;;;;5122645;27;20075;-63
2023/06/29 11:52:34;;;;;;;31.45;26.48;;;24.20;99.90;;;;;;5140781;27;20034;-63
2023/06/29 11:55:01;;;;;;;32.47;26.13;;;23.90;99.90;;;;;;5144528;27;20053;-63
2023/06/29 11:57:31;;;;;;;37.67;23.42;;;23.90;99.90;;;;;;5146857;27;20042;-63
2023/06/29 11:59:57;;;;;;;33.75;24.90;;;24.00;99.90;;;;;;5141988;27;20086;-62
2023/06/29 12:02:23;;;;;;;37.50;25.08;;;23.90;99.90;;;;;;5141699;27;20103;-62
2023/06/29 12:05:00;;;;;;;31.63;25.05;;;24.00;99.90;;;;;;5142905;27;20393;-63
2023/06/29 12:07:39;;;;;;;37.72;24.60;;;24.00;99.90;;;;;;5126871;27;20392;-63
2023/06/29 12:10:10;;;;;;;34.80;26.92;;;24.00;99.90;;;;;;5143642;27;20370;-62
2023/06/29 12:12:48;;;;;;;32.78;25.13;;;24.00;99.90;;;;;;5128078;27;20081;-62
2023/06/29 12:15:26;;;;;;;35.20;24.98;;;24.00;99.90;;;;;;5139377;27;20027;-63
2023/06/29 12:17:53;;;;;;;31.98;24.13;;;24.00;99.90;;;;;;5123708;27;20042;-63
2023/06/29 12:20:23;;;;;;;33.45;23.65;;;23.90;99.90;;;;;;5125325;27;20524;-63
2023/06/29 12:22:53;;;;;;;32.15;24.65;;;23.90;99.90;;;;;;5127038;27;20056;-62
2023/06/29 12:25:19;;;;;;;31.80;24.38;;;23.80;99.90;;;;;;5125981;27;20125;-63
2023/06/29 12:27:47;;;;;;;35.10;25.17;;;23.80;99.90;;;;;;5118446;27;20389;-62